Accueil
METAR-TAF:

METAR-TAF

Aéroports :

Aérodrome de Londres Biggin Hill

Londres Biggin Hill, Angleterre

latitude: 51-19N, longitude: 000-02E, altitude: 183 m

Observation

Le bulletin a été fait il y a 52 minutes, à 11:20 UTC
Vent 4 kt de ouest, variant entre sud-ouest et nord
Température 8°C
Humidité 61%
Pression 1018 hPa
Visibilité 10 km ou plus
Quelques nuages à une hauteur de 3000 ft
Nuages épars à une hauteur de 4500 ft

METAR: EGKB 031120Z 28004KT 230V350 9999 FEW030 SCT045 08/01 Q1018

Heure: 13:12 (12:12 UTC)

Prévision

Le bulletin a été fait il y a 16 heures et 39 minutes, à 19:33 UTC
Prévision valable du 02 à 19 UTC au 02 à 22 UTC
Vent 9 kt de ouest
Visibilité 10 km ou plus
Nuages épars à une hauteur de 3500 ft

TAF: EGKB 021933Z 0219/0222 28009KT 9999 SCT035

Observations et prévisions météorologiques de plus de 4000 aéroports (messages METAR et TAF).

Les stations disponibles sont représentées par des disques jaunes et rouges sur la carte.

Passer la souris dessus pour voir le nom de la station.

Cliquer dessus pour voir les observations et prévisions météorologiques.

Pour changer de carte: cliquez sur les boutons verts avec une croix noire pour zoomer, sur le bouton vert avec un tiret pour effectuer un zoom arrière, ou sur les flèches vertes pour les cartes adjacentes.


METAR-TAF: